Time;durP1;ratioP1;P1;durP2;ratioP2;P2;SDS_P1;SDS_P2;PMS_P1;PMS_P2;Temp;Humidity;BMP_temperature;BMP_pressure;BME280_temperature;BME280_humidity;BME280_pressure;Samples;Min_cycle;Max_cycle;Signal;HPM_P1;HPM_P2
2022/02/24 00:00:10;;;;;;;361.30;344.93;;;7.60;99.90;;;;;;4374277;32;20271;-65
2022/02/24 00:02:37;;;;;;;360.63;344.47;;;7.60;99.90;;;;;;4368919;32;20495;-65
2022/02/24 00:05:04;;;;;;;373.40;356.73;;;7.60;99.90;;;;;;4375127;32;20157;-65
2022/02/24 00:07:31;;;;;;;378.40;360.93;;;7.60;99.90;;;;;;4377119;32;20514;-67
2022/02/24 00:09:58;;;;;;;359.47;343.43;;;7.70;99.90;;;;;;4377207;32;20172;-65
2022/02/24 00:12:25;;;;;;;371.07;353.87;;;7.70;99.90;;;;;;4373210;32;20176;-66
2022/02/24 00:14:52;;;;;;;352.70;337.33;;;7.60;99.90;;;;;;4377357;32;20154;-64
2022/02/24 00:17:21;;;;;;;379.87;362.67;;;7.60;99.90;;;;;;4375720;32;20193;-67
2022/02/24 00:19:47;;;;;;;373.73;356.23;;;7.60;99.90;;;;;;4373414;32;20203;-66
2022/02/24 00:22:16;;;;;;;355.43;339.47;;;7.60;99.90;;;;;;4373924;32;20197;-64
2022/02/24 00:24:43;;;;;;;359.13;343.00;;;7.60;99.90;;;;;;4377173;32;20157;-65
2022/02/24 00:27:10;;;;;;;387.50;370.27;;;7.70;99.90;;;;;;4379011;32;20617;-65
2022/02/24 00:29:37;;;;;;;371.33;355.03;;;7.70;99.90;;;;;;4376894;32;20153;-65
2022/02/24 00:32:05;;;;;;;365.80;349.17;;;7.60;99.90;;;;;;4369002;32;20179;-64
2022/02/24 00:34:34;;;;;;;333.70;318.87;;;7.60;99.90;;;;;;4376170;32;20162;-65
2022/02/24 00:37:02;;;;;;;353.90;338.90;;;7.60;99.90;;;;;;4377562;32;20157;-65
2022/02/24 00:39:30;;;;;;;349.87;334.93;;;7.70;99.90;;;;;;4377095;32;20158;-64
2022/02/24 00:41:57;;;;;;;331.97;317.20;;;7.60;99.90;;;;;;4371157;32;20637;-65
2022/02/24 00:44:24;;;;;;;343.93;328.57;;;7.70;99.90;;;;;;4371135;32;20179;-65
2022/02/24 00:46:50;;;;;;;334.60;319.73;;;7.60;99.90;;;;;;4376323;32;20172;-67
2022/02/24 00:49:18;;;;;;;330.10;315.83;;;7.70;99.90;;;;;;4377532;32;20187;-64
2022/02/24 00:51:46;;;;;;;322.27;308.47;;;7.70;99.90;;;;;;4374047;32;20242;-64
2022/02/24 00:54:16;;;;;;;305.30;291.57;;;7.70;99.90;;;;;;4380545;32;20166;-64
2022/02/24 00:56:43;;;;;;;341.40;326.47;;;7.70;99.90;;;;;;4376926;32;20163;-64
2022/02/24 00:59:10;;;;;;;318.83;304.30;;;7.80;99.90;;;;;;4376662;32;20179;-66
2022/02/24 01:01:37;;;;;;;340.27;325.73;;;7.80;99.90;;;;;;4374824;32;20249;-67
2022/02/24 01:04:04;;;;;;;333.93;319.43;;;7.70;99.90;;;;;;4376108;32;20168;-66
2022/02/24 01:06:31;;;;;;;344.27;329.40;;;7.70;99.90;;;;;;4376428;32;20597;-66
2022/02/24 01:08:59;;;;;;;327.47;313.07;;;7.70;99.90;;;;;;4377009;32;20193;-64
2022/02/24 01:11:26;;;;;;;334.27;319.83;;;7.70;99.90;;;;;;4376520;32;20180;-65
2022/02/24 01:13:55;;;;;;;326.70;312.30;;;7.70;99.90;;;;;;4373793;32;20174;-65
2022/02/24 01:16:22;;;;;;;342.13;326.63;;;7.70;99.90;;;;;;4375476;32;20239;-66
2022/02/24 01:18:49;;;;;;;343.87;327.97;;;7.80;99.90;;;;;;4377332;32;20201;-66
2022/02/24 01:21:16;;;;;;;364.10;347.23;;;7.80;99.90;;;;;;4376205;32;20167;-65
2022/02/24 01:23:43;;;;;;;347.67;331.77;;;7.70;99.90;;;;;;4374533;32;20200;-64
2022/02/24 01:26:15;;;;;;;339.13;324.17;;;7.70;99.90;;;;;;4373575;32;20213;-65
2022/02/24 01:28:41;;;;;;;328.30;313.63;;;7.70;99.90;;;;;;4366190;32;20205;-67
2022/02/24 01:31:08;;;;;;;366.13;349.47;;;7.80;99.90;;;;;;4364580;32;20269;-64
2022/02/24 01:33:35;;;;;;;349.83;333.93;;;7.70;99.90;;;;;;4364854;32;20149;-65
2022/02/24 01:36:02;;;;;;;372.30;355.87;;;7.80;99.90;;;;;;4373549;32;20152;-64
2022/02/24 01:38:28;;;;;;;346.80;331.43;;;7.70;99.90;;;;;;4375628;32;20214;-65
2022/02/24 01:40:56;;;;;;;353.03;337.10;;;7.80;99.90;;;;;;4375469;32;20179;-65
2022/02/24 01:43:24;;;;;;;348.07;332.90;;;7.80;99.90;;;;;;4374289;32;20156;-64
2022/02/24 01:45:51;;;;;;;352.83;337.00;;;7.80;99.90;;;;;;4375934;32;20209;-65
2022/02/24 01:48:17;;;;;;;358.13;342.33;;;7.80;99.90;;;;;;4376683;32;20477;-64
2022/02/24 01:50:45;;;;;;;348.43;332.60;;;7.80;99.90;;;;;;4375929;32;20499;-64
2022/02/24 01:53:11;;;;;;;365.90;349.87;;;7.80;99.90;;;;;;4372298;32;20188;-65
2022/02/24 01:55:38;;;;;;;372.47;356.13;;;7.80;99.90;;;;;;4363419;32;20243;-65
2022/02/24 01:58:05;;;;;;;367.60;350.83;;;7.70;99.90;;;;;;4371428;32;20546;-64
2022/02/24 02:00:34;;;;;;;355.27;339.27;;;7.70;99.90;;;;;;4375772;32;20190;-65
2022/02/24 02:03:01;;;;;;;353.07;337.50;;;7.80;99.90;;;;;;4373796;32;20161;-65
2022/02/24 02:05:30;;;;;;;370.80;353.90;;;7.80;99.90;;;;;;4375908;32;20214;-64
2022/02/24 02:07:58;;;;;;;352.73;337.27;;;7.80;99.90;;;;;;4375875;32;20222;-65
2022/02/24 02:10:26;;;;;;;362.83;346.27;;;7.80;99.90;;;;;;4375652;32;20229;-64
2022/02/24 02:12:54;;;;;;;375.10;358.13;;;7.80;99.90;;;;;;4375252;32;20578;-65
2022/02/24 02:15:21;;;;;;;376.17;359.33;;;7.80;99.90;;;;;;4372189;32;20153;-64
2022/02/24 02:17:50;;;;;;;354.80;338.87;;;7.80;99.90;;;;;;4371863;32;20187;-65
2022/02/24 02:20:19;;;;;;;376.73;359.93;;;7.70;99.90;;;;;;4369379;32;20173;-64
2022/02/24 02:22:52;;;;;;;370.73;354.50;;;7.80;99.90;;;;;;4375603;32;20157;-64
2022/02/24 02:25:20;;;;;;;377.47;360.70;;;7.80;99.90;;;;;;4371917;32;20588;-64
2022/02/24 02:27:49;;;;;;;376.23;358.80;;;7.80;99.90;;;;;;4374977;32;20214;-64
2022/02/24 02:30:23;;;;;;;366.23;349.70;;;7.80;99.90;;;;;;4375758;32;20164;-64
2022/02/24 02:32:50;;;;;;;367.60;351.10;;;7.80;99.90;;;;;;4374887;32;20214;-65
2022/02/24 02:35:17;;;;;;;387.00;369.43;;;7.70;99.90;;;;;;4377904;32;20236;-64
2022/02/24 02:37:44;;;;;;;409.67;390.67;;;7.70;99.90;;;;;;4377094;32;20213;-64
2022/02/24 02:40:13;;;;;;;400.63;381.93;;;7.70;99.90;;;;;;4375138;32;20157;-64
2022/02/24 02:42:40;;;;;;;408.43;389.80;;;7.70;99.90;;;;;;4373685;32;20171;-64
2022/02/24 02:45:08;;;;;;;409.53;391.00;;;7.70;99.90;;;;;;4364113;32;20161;-65
2022/02/24 02:47:35;;;;;;;414.93;395.67;;;7.70;99.90;;;;;;4361960;32;20174;-64
2022/02/24 02:50:03;;;;;;;410.30;391.77;;;7.70;99.90;;;;;;4375521;32;20160;-64
2022/02/24 02:52:32;;;;;;;410.83;392.70;;;7.70;99.90;;;;;;4374924;32;20603;-64
2022/02/24 02:55:07;;;;;;;436.30;416.23;;;7.70;99.90;;;;;;4365483;32;20214;-67
2022/02/24 02:57:35;;;;;;;386.77;369.43;;;7.70;99.90;;;;;;4367861;32;20213;-65
2022/02/24 03:00:05;;;;;;;396.60;378.33;;;7.70;99.90;;;;;;4360422;32;20212;-67
2022/02/24 03:02:35;;;;;;;415.10;396.13;;;7.80;99.90;;;;;;4359343;32;20211;-64
2022/02/24 03:05:18;;;;;;;393.03;374.87;;;7.70;99.90;;;;;;4358916;32;20613;-68
2022/02/24 03:07:45;;;;;;;408.77;390.40;;;7.70;99.90;;;;;;4359130;32;20175;-62
2022/02/24 03:10:12;;;;;;;391.60;374.13;;;7.80;99.90;;;;;;4360856;32;20219;-65
2022/02/24 03:12:45;;;;;;;390.17;372.87;;;7.80;99.90;;;;;;4361195;32;20228;-65
2022/02/24 03:15:19;;;;;;;385.80;368.20;;;7.90;99.90;;;;;;4358304;32;20174;-63
2022/02/24 03:20:36;;;;;;;401.57;383.17;;;7.70;99.90;;;;;;4326116;33;21038;-64
2022/02/24 03:23:05;;;;;;;389.77;371.77;;;7.80;99.90;;;;;;4325345;33;20690;-67
2022/02/24 03:25:32;;;;;;;406.90;388.67;;;7.80;99.90;;;;;;4325748;33;20219;-65
2022/02/24 03:28:21;;;;;;;405.60;387.10;;;7.80;99.90;;;;;;4327772;33;20893;-64
2022/02/24 03:30:48;;;;;;;360.83;345.27;;;7.80;99.90;;;;;;4326355;33;20283;-65
2022/02/24 03:33:16;;;;;;;404.07;386.37;;;7.80;99.90;;;;;;4324453;33;20538;-66
2022/02/24 03:35:49;;;;;;;392.13;375.13;;;7.80;99.90;;;;;;4325445;33;20740;-66
2022/02/24 03:38:19;;;;;;;390.07;372.90;;;7.80;99.90;;;;;;4323882;33;20173;-64
2022/02/24 03:40:46;;;;;;;396.33;378.43;;;7.80;99.90;;;;;;4328315;33;20184;-63
2022/02/24 03:43:21;;;;;;;387.97;370.27;;;7.80;99.90;;;;;;4330530;33;20260;-64
2022/02/24 03:45:53;;;;;;;369.97;353.37;;;7.80;99.90;;;;;;4331820;33;20632;-65
2022/02/24 03:48:21;;;;;;;374.70;357.43;;;7.80;99.90;;;;;;4335025;33;20221;-65
2022/02/24 03:50:48;;;;;;;375.97;359.77;;;7.80;99.90;;;;;;4340939;33;20216;-64
2022/02/24 03:53:15;;;;;;;389.83;372.57;;;7.70;99.90;;;;;;4359514;32;20191;-64
2022/02/24 03:55:41;;;;;;;388.03;370.00;;;7.70;99.90;;;;;;4359098;32;20235;-64
2022/02/24 03:58:15;;;;;;;395.83;378.43;;;7.70;99.90;;;;;;4361250;32;20639;-64
2022/02/24 04:00:42;;;;;;;388.00;370.63;;;7.60;99.90;;;;;;4370695;32;20183;-65
2022/02/24 04:03:09;;;;;;;397.93;380.50;;;7.70;99.90;;;;;;4374079;32;20616;-63
2022/02/24 04:05:36;;;;;;;398.77;381.03;;;7.60;99.90;;;;;;4365881;32;20191;-66
2022/02/24 04:08:05;;;;;;;401.47;383.00;;;7.60;99.90;;;;;;4364216;32;20716;-65
2022/02/24 04:10:32;;;;;;;385.37;367.80;;;7.60;99.90;;;;;;4357979;32;20904;-64
2022/02/24 04:12:59;;;;;;;370.53;354.00;;;7.70;99.90;;;;;;4361530;32;20200;-66
2022/02/24 04:15:27;;;;;;;383.13;366.60;;;7.70;99.90;;;;;;4357858;32;20173;-63
2022/02/24 04:17:59;;;;;;;384.60;367.13;;;7.80;99.90;;;;;;4361610;32;20534;-65
2022/02/24 04:20:30;;;;;;;390.53;373.17;;;7.70;99.90;;;;;;4364889;32;20187;-64
2022/02/24 04:23:00;;;;;;;380.80;363.47;;;7.70;99.90;;;;;;4360357;32;20203;-66
2022/02/24 04:25:27;;;;;;;373.10;356.43;;;7.70;99.90;;;;;;4363576;32;20150;-65
2022/02/24 04:27:53;;;;;;;385.00;368.13;;;7.70;99.90;;;;;;4366426;32;20613;-64
2022/02/24 04:30:24;;;;;;;405.17;386.93;;;7.70;99.90;;;;;;4367813;32;20201;-64
2022/02/24 04:32:52;;;;;;;399.63;382.00;;;7.80;99.90;;;;;;4369069;32;20157;-64
2022/02/24 04:35:19;;;;;;;399.50;381.63;;;7.70;99.90;;;;;;4370518;32;20422;-64
2022/02/24 04:37:46;;;;;;;403.87;385.40;;;7.70;99.90;;;;;;4370985;32;20153;-66
2022/02/24 04:40:15;;;;;;;423.97;404.43;;;7.70;99.90;;;;;;4376722;32;20204;-65
2022/02/24 04:42:42;;;;;;;426.10;407.30;;;7.70;99.90;;;;;;4373688;32;20174;-66
2022/02/24 04:45:09;;;;;;;419.27;400.67;;;7.70;99.90;;;;;;4370079;32;20191;-62
2022/02/24 04:47:37;;;;;;;405.97;387.27;;;7.70;99.90;;;;;;4364787;32;20157;-65
2022/02/24 04:50:08;;;;;;;428.80;409.20;;;7.70;99.90;;;;;;4367350;32;20208;-64
2022/02/24 04:52:35;;;;;;;420.33;401.07;;;7.70;99.90;;;;;;4364890;32;20177;-65
2022/02/24 04:55:02;;;;;;;385.03;367.43;;;7.70;99.90;;;;;;4378157;32;20153;-68
2022/02/24 04:57:29;;;;;;;412.23;393.37;;;7.70;99.90;;;;;;4374435;32;20247;-67
2022/02/24 04:59:56;;;;;;;429.57;409.57;;;7.70;99.90;;;;;;4376431;32;20179;-64
2022/02/24 05:02:23;;;;;;;414.80;396.10;;;7.70;99.90;;;;;;4375554;32;20581;-64
2022/02/24 05:04:50;;;;;;;436.80;417.33;;;7.70;99.90;;;;;;4368023;32;20215;-62
2022/02/24 05:07:18;;;;;;;420.23;400.93;;;7.70;99.90;;;;;;4377003;32;20628;-66
2022/02/24 05:09:45;;;;;;;423.57;403.67;;;7.70;99.90;;;;;;4376468;32;20509;-63
2022/02/24 05:12:11;;;;;;;430.50;410.47;;;7.70;99.90;;;;;;4377333;32;20220;-62
2022/02/24 05:14:38;;;;;;;422.07;402.43;;;7.60;99.90;;;;;;4374586;32;20211;-63
2022/02/24 05:17:05;;;;;;;414.30;395.20;;;7.50;99.90;;;;;;4378309;32;20201;-66
2022/02/24 05:19:32;;;;;;;424.87;405.33;;;7.60;99.90;;;;;;4377096;32;20158;-66
2022/02/24 05:21:59;;;;;;;417.83;399.07;;;7.60;99.90;;;;;;4377507;32;20648;-66
2022/02/24 05:24:27;;;;;;;423.70;404.63;;;7.60;99.90;;;;;;4375398;32;20231;-66
2022/02/24 05:26:57;;;;;;;433.70;413.57;;;7.50;99.90;;;;;;4376329;32;20182;-66
2022/02/24 05:29:26;;;;;;;425.83;405.97;;;7.50;99.90;;;;;;4376172;32;20171;-67
2022/02/24 05:31:52;;;;;;;427.20;408.03;;;7.50;99.90;;;;;;4376547;32;20167;-65
2022/02/24 05:34:19;;;;;;;428.30;408.30;;;7.60;99.90;;;;;;4369013;32;20205;-66
2022/02/24 05:36:46;;;;;;;422.10;402.07;;;7.50;99.90;;;;;;4374309;32;20214;-64
2022/02/24 05:39:13;;;;;;;422.33;402.70;;;7.60;99.90;;;;;;4376168;32;20199;-66
2022/02/24 05:41:41;;;;;;;405.40;386.47;;;7.60;99.90;;;;;;4375829;32;20175;-63
2022/02/24 05:44:08;;;;;;;411.87;393.03;;;7.60;99.90;;;;;;4370029;32;20594;-64
2022/02/24 05:46:35;;;;;;;412.33;393.30;;;7.70;99.90;;;;;;4371899;32;20580;-63
2022/02/24 05:49:02;;;;;;;419.80;400.53;;;7.70;99.90;;;;;;4377956;32;20171;-65
2022/02/24 05:51:29;;;;;;;407.53;388.53;;;7.60;99.90;;;;;;4372659;32;20525;-62
2022/02/24 05:53:55;;;;;;;409.47;390.97;;;7.70;99.90;;;;;;4372295;32;20184;-66
2022/02/24 05:56:23;;;;;;;413.73;394.73;;;7.60;99.90;;;;;;4370042;32;20216;-63
2022/02/24 05:58:51;;;;;;;409.80;391.00;;;7.60;99.90;;;;;;4376747;32;20152;-63
2022/02/24 06:01:18;;;;;;;429.70;409.43;;;7.60;99.90;;;;;;4375642;32;20184;-66
2022/02/24 06:03:46;;;;;;;424.07;404.77;;;7.60;99.90;;;;;;4375064;32;20213;-66
2022/02/24 06:06:15;;;;;;;427.67;407.13;;;7.60;99.90;;;;;;4362130;32;20169;-66
2022/02/24 06:08:43;;;;;;;422.03;402.57;;;7.60;99.90;;;;;;4373331;32;20172;-65
2022/02/24 06:11:10;;;;;;;411.73;392.43;;;7.60;99.90;;;;;;4376621;32;20154;-63
2022/02/24 06:13:39;;;;;;;412.83;394.67;;;7.70;99.90;;;;;;4375452;32;20191;-65
2022/02/24 06:16:10;;;;;;;414.37;395.83;;;7.70;99.90;;;;;;4370893;32;20493;-65
2022/02/24 06:18:39;;;;;;;425.27;406.00;;;7.60;99.90;;;;;;4374135;32;20239;-64
2022/02/24 06:21:06;;;;;;;415.07;395.77;;;7.60;99.90;;;;;;4374491;32;20231;-68
2022/02/24 06:23:33;;;;;;;390.73;373.03;;;7.70;99.90;;;;;;4374313;32;20592;-64
2022/02/24 06:26:00;;;;;;;414.67;396.00;;;7.70;99.90;;;;;;4369081;32;20172;-66
2022/02/24 06:28:27;;;;;;;405.80;387.40;;;7.70;99.90;;;;;;4374408;32;20204;-65
2022/02/24 06:30:53;;;;;;;407.67;389.07;;;7.70;99.90;;;;;;4374744;32;20220;-62
2022/02/24 06:33:22;;;;;;;418.53;399.83;;;7.70;99.90;;;;;;4376192;32;20167;-63
2022/02/24 06:35:48;;;;;;;404.77;386.20;;;7.70;99.90;;;;;;4373737;32;20230;-62
2022/02/24 06:38:15;;;;;;;394.07;376.77;;;7.70;99.90;;;;;;4373821;32;20216;-62
2022/02/24 06:40:42;;;;;;;422.83;403.80;;;7.70;99.90;;;;;;4374240;32;20195;-63
2022/02/24 06:43:09;;;;;;;412.60;393.47;;;7.60;99.90;;;;;;4375900;32;20175;-64
2022/02/24 06:45:35;;;;;;;434.07;413.43;;;7.60;99.90;;;;;;4373899;32;20187;-64
2022/02/24 06:48:02;;;;;;;407.03;388.47;;;7.60;99.90;;;;;;4373832;32;20212;-63
2022/02/24 06:50:31;;;;;;;424.13;405.00;;;7.60;99.90;;;;;;4373061;32;20196;-64
2022/02/24 06:52:57;;;;;;;436.30;415.23;;;7.60;99.90;;;;;;4374205;32;20179;-63
2022/02/24 06:55:24;;;;;;;433.93;414.17;;;7.60;99.90;;;;;;4373261;32;20209;-64
2022/02/24 06:57:52;;;;;;;409.93;391.27;;;7.60;99.90;;;;;;4370086;32;20145;-64
2022/02/24 07:00:20;;;;;;;413.43;394.53;;;7.60;99.90;;;;;;4370681;32;20246;-64
2022/02/24 07:02:46;;;;;;;421.57;401.67;;;7.70;99.90;;;;;;4368800;32;20502;-63
2022/02/24 07:05:13;;;;;;;436.57;416.67;;;7.70;99.90;;;;;;4372590;32;20172;-64
2022/02/24 07:07:42;;;;;;;434.47;413.80;;;7.70;99.90;;;;;;4368171;32;20166;-64
2022/02/24 07:10:11;;;;;;;430.10;410.57;;;7.70;99.90;;;;;;4376339;32;20214;-64
2022/02/24 07:12:39;;;;;;;411.77;393.13;;;7.70;99.90;;;;;;4375340;32;20581;-64
2022/02/24 07:15:07;;;;;;;423.70;403.93;;;7.70;99.90;;;;;;4376308;32;20210;-65
2022/02/24 07:17:34;;;;;;;434.93;414.77;;;7.70;99.90;;;;;;4364674;32;20178;-64
2022/02/24 07:20:00;;;;;;;430.57;411.50;;;7.70;99.90;;;;;;4363389;32;20153;-62
2022/02/24 07:22:27;;;;;;;431.53;411.43;;;7.70;99.90;;;;;;4362948;32;20176;-65
2022/02/24 07:24:56;;;;;;;419.60;400.27;;;7.70;99.90;;;;;;4364967;32;20194;-65
2022/02/24 07:27:23;;;;;;;429.77;409.87;;;7.80;99.90;;;;;;4367232;32;20161;-65
2022/02/24 07:29:50;;;;;;;413.83;394.53;;;7.80;99.90;;;;;;4364629;32;20236;-63
2022/02/24 07:32:17;;;;;;;423.23;403.03;;;7.80;99.90;;;;;;4377000;32;20172;-65
2022/02/24 07:34:45;;;;;;;431.97;412.17;;;7.80;99.90;;;;;;4378174;32;20625;-64
2022/02/24 07:37:12;;;;;;;441.90;421.50;;;7.80;99.90;;;;;;4376414;32;20152;-63
2022/02/24 07:39:39;;;;;;;417.03;398.47;;;7.80;99.90;;;;;;4378291;32;20168;-62
2022/02/24 07:42:08;;;;;;;408.07;388.97;;;7.90;99.90;;;;;;4377307;32;20504;-63
2022/02/24 07:44:34;;;;;;;426.10;406.43;;;7.90;99.90;;;;;;4375575;32;20169;-65
2022/02/24 07:47:01;;;;;;;420.83;401.67;;;7.90;99.90;;;;;;4372680;32;20204;-65
2022/02/24 07:49:28;;;;;;;425.00;405.13;;;8.00;99.90;;;;;;4376338;32;20206;-65
2022/02/24 07:51:55;;;;;;;427.00;406.77;;;8.00;99.90;;;;;;4368847;32;20149;-65
2022/02/24 07:54:23;;;;;;;437.67;417.67;;;7.70;99.90;;;;;;4372175;32;20161;-65
2022/02/24 07:56:51;;;;;;;446.50;426.17;;;7.60;99.90;;;;;;4375193;32;20204;-63
2022/02/24 07:59:20;;;;;;;462.97;441.23;;;7.50;99.90;;;;;;4375752;32;20183;-62
2022/02/24 08:01:47;;;;;;;463.47;442.07;;;7.50;99.90;;;;;;4378564;32;20581;-63
2022/02/24 08:04:15;;;;;;;458.83;437.40;;;7.40;99.90;;;;;;4377388;32;20152;-63
2022/02/24 08:06:42;;;;;;;466.20;444.17;;;7.50;99.90;;;;;;4370741;32;20518;-64
2022/02/24 08:09:09;;;;;;;463.27;441.60;;;7.50;99.90;;;;;;4363301;32;20145;-64
2022/02/24 08:11:36;;;;;;;454.17;433.30;;;7.50;99.90;;;;;;4363023;32;20203;-65
2022/02/24 08:14:04;;;;;;;464.43;442.93;;;7.60;99.90;;;;;;4362807;32;20141;-62
2022/02/24 08:16:32;;;;;;;459.47;438.17;;;7.60;99.90;;;;;;4365615;32;20516;-62
2022/02/24 08:19:00;;;;;;;462.63;440.60;;;7.50;99.90;;;;;;4363222;32;20145;-62
2022/02/24 08:21:27;;;;;;;449.53;428.20;;;7.70;99.90;;;;;;4362716;32;20145;-65
2022/02/24 08:23:54;;;;;;;446.60;426.03;;;7.70;99.90;;;;;;4362351;32;20186;-62
2022/02/24 08:26:21;;;;;;;480.30;457.57;;;7.60;99.90;;;;;;4365481;32;20209;-65
2022/02/24 08:28:50;;;;;;;466.07;443.83;;;7.70;99.90;;;;;;4362703;32;20584;-64
2022/02/24 08:31:17;;;;;;;474.20;452.73;;;7.60;99.90;;;;;;4362688;32;20188;-64
2022/02/24 08:33:45;;;;;;;427.40;407.70;;;7.70;99.90;;;;;;4363025;32;20183;-65
2022/02/24 08:36:12;;;;;;;457.33;436.47;;;7.70;99.90;;;;;;4363235;32;20161;-64
2022/02/24 08:38:38;;;;;;;447.37;426.97;;;7.80;99.90;;;;;;4363818;32;20573;-64
2022/02/24 08:41:05;;;;;;;439.47;419.57;;;7.80;99.90;;;;;;4362305;32;20149;-64
2022/02/24 08:43:32;;;;;;;439.63;419.07;;;7.70;99.90;;;;;;4363681;32;20154;-63
2022/02/24 08:45:59;;;;;;;453.23;431.80;;;7.70;99.90;;;;;;4362924;32;20208;-62
2022/02/24 08:48:26;;;;;;;434.70;415.03;;;7.80;99.90;;;;;;4365007;32;20162;-63
2022/02/24 08:50:54;;;;;;;461.47;440.43;;;7.80;99.90;;;;;;4362390;32;20202;-64
2022/02/24 08:53:21;;;;;;;432.13;412.33;;;8.00;99.90;;;;;;4362274;32;20232;-62
2022/02/24 08:55:48;;;;;;;431.67;411.80;;;8.20;99.90;;;;;;4362150;32;20507;-65
2022/02/24 08:58:16;;;;;;;425.43;406.67;;;8.30;99.90;;;;;;4364261;32;20468;-65
2022/02/24 09:00:47;;;;;;;420.13;401.50;;;8.40;99.90;;;;;;4362088;32;20158;-64
2022/02/24 09:03:14;;;;;;;417.10;397.77;;;8.30;99.90;;;;;;4362077;32;20151;-63
2022/02/24 09:05:41;;;;;;;436.07;415.73;;;8.20;99.90;;;;;;4362168;32;20231;-65
2022/02/24 09:08:09;;;;;;;411.97;393.03;;;8.20;99.90;;;;;;4363830;32;20182;-63
2022/02/24 09:10:36;;;;;;;422.00;402.93;;;8.20;99.90;;;;;;4362035;32;20146;-64
2022/02/24 09:13:04;;;;;;;416.13;397.50;;;8.30;99.90;;;;;;4362314;32;20206;-63
2022/02/24 09:15:32;;;;;;;410.13;391.90;;;8.30;99.90;;;;;;4361796;32;20218;-64
2022/02/24 09:17:59;;;;;;;429.77;410.27;;;8.50;99.90;;;;;;4367176;32;20202;-62
2022/02/24 09:20:26;;;;;;;417.13;397.90;;;8.80;99.90;;;;;;4376824;32;20159;-65
2022/02/24 09:22:53;;;;;;;407.50;389.07;;;9.00;99.90;;;;;;4376834;32;20181;-65
2022/02/24 09:25:21;;;;;;;406.97;389.07;;;9.20;99.90;;;;;;4376756;32;20165;-66
2022/02/24 09:27:48;;;;;;;379.80;362.57;;;9.50;99.90;;;;;;4373824;32;20578;-64
2022/02/24 09:30:15;;;;;;;362.87;346.57;;;9.80;99.90;;;;;;4362786;32;20143;-64
2022/02/24 09:32:43;;;;;;;381.53;364.90;;;10.10;99.90;;;;;;4363027;32;20165;-63
2022/02/24 09:35:13;;;;;;;359.70;344.07;;;10.30;99.90;;;;;;4362924;32;20512;-66
2022/02/24 09:37:40;;;;;;;364.67;348.90;;;10.30;99.90;;;;;;4361355;32;20215;-64
2022/02/24 09:40:09;;;;;;;382.83;365.97;;;10.20;99.90;;;;;;4373841;32;20205;-61
2022/02/24 09:42:38;;;;;;;378.67;362.23;;;10.10;99.90;;;;;;4377983;32;20148;-62
2022/02/24 09:45:06;;;;;;;391.60;374.43;;;10.10;99.90;;;;;;4376206;32;20140;-67
2022/02/24 09:47:32;;;;;;;385.20;368.20;;;10.40;99.90;;;;;;4372443;32;20205;-63
2022/02/24 09:50:02;;;;;;;371.73;355.80;;;10.70;99.90;;;;;;4364162;32;20187;-66
2022/02/24 09:52:30;;;;;;;348.50;333.20;;;11.10;99.90;;;;;;4367861;32;20591;-64
2022/02/24 09:54:57;;;;;;;338.27;323.10;;;11.30;99.90;;;;;;4366207;32;20208;-64
2022/02/24 09:57:24;;;;;;;346.57;330.73;;;11.00;99.90;;;;;;4369017;32;20172;-62
2022/02/24 09:59:52;;;;;;;348.10;332.67;;;10.50;99.90;;;;;;4370655;32;20164;-63
2022/02/24 10:02:20;;;;;;;371.40;354.10;;;10.40;99.90;;;;;;4376207;32;20185;-63
2022/02/24 10:05:08;;;;;;;386.70;370.07;;;10.20;99.90;;;;;;4376254;32;20155;-63
2022/02/24 10:07:37;;;;;;;349.50;334.63;;;10.20;99.90;;;;;;4376252;32;20516;-65
2022/02/24 10:10:23;;;;;;;408.27;390.43;;;10.40;99.90;;;;;;4366885;32;20196;-66
2022/02/24 10:13:00;;;;;;;359.63;344.07;;;10.40;99.90;;;;;;4361018;32;20176;-64
2022/02/24 10:15:29;;;;;;;352.63;337.10;;;10.40;99.90;;;;;;4360917;32;20215;-63
2022/02/24 10:18:17;;;;;;;351.97;336.47;;;10.20;99.90;;;;;;4361142;32;20567;-64
2022/02/24 10:20:47;;;;;;;368.47;352.47;;;10.40;99.90;;;;;;4292531;32;2069846;-66
2022/02/24 10:23:16;;;;;;;356.87;341.30;;;10.40;99.90;;;;;;4360871;33;20580;-66
2022/02/24 10:25:45;;;;;;;363.63;347.57;;;10.80;99.90;;;;;;4360736;33;20172;-65
2022/02/24 10:28:31;;;;;;;377.47;360.27;;;11.10;99.90;;;;;;4360960;33;20203;-64
2022/02/24 10:31:03;;;;;;;330.67;316.47;;;11.00;99.90;;;;;;4349660;32;20471;-64
2022/02/24 10:33:31;;;;;;;343.27;327.63;;;10.60;99.90;;;;;;4346027;33;20592;-63
2022/02/24 10:36:09;;;;;;;371.13;354.60;;;10.40;99.90;;;;;;4345977;33;20137;-63
2022/02/24 10:38:36;;;;;;;354.43;339.00;;;10.10;99.90;;;;;;4347047;33;20167;-64
2022/02/24 10:41:03;;;;;;;369.60;353.27;;;10.00;99.90;;;;;;4355833;33;20189;-64
2022/02/24 10:43:33;;;;;;;384.23;366.70;;;10.10;99.90;;;;;;4360942;32;20212;-64
2022/02/24 10:46:03;;;;;;;376.53;359.97;;;10.00;99.90;;;;;;4360938;32;20219;-62
2022/02/24 10:48:32;;;;;;;374.07;357.73;;;10.00;99.90;;;;;;4360694;32;20169;-62
2022/02/24 10:51:01;;;;;;;372.67;356.17;;;10.10;99.90;;;;;;4351776;33;20152;-64
2022/02/24 10:53:30;;;;;;;387.97;371.07;;;10.40;99.90;;;;;;4346127;33;20482;-63
2022/02/24 10:56:03;;;;;;;376.20;359.90;;;10.90;99.90;;;;;;4346369;33;20224;-62
2022/02/24 10:58:31;;;;;;;349.27;333.80;;;11.50;99.90;;;;;;4345601;33;20224;-63
2022/02/24 11:01:10;;;;;;;342.40;327.80;;;12.00;99.90;;;;;;4347164;33;20159;-65
2022/02/24 11:03:38;;;;;;;309.10;295.67;;;12.30;99.90;;;;;;4345763;33;20171;-64
2022/02/24 11:06:07;;;;;;;285.43;272.93;;;12.30;99.90;;;;;;4345807;33;20145;-64
2022/02/24 11:08:35;;;;;;;312.10;298.33;;;12.10;99.90;;;;;;4345428;33;20172;-65
2022/02/24 11:11:04;;;;;;;324.03;310.17;;;12.30;99.90;;;;;;4351144;33;20636;-65
2022/02/24 11:13:31;;;;;;;327.83;313.73;;;12.10;99.90;;;;;;4360382;33;20149;-65
2022/02/24 11:15:59;;;;;;;305.93;292.60;;;11.90;99.90;;;;;;4360455;33;20501;-64
2022/02/24 11:18:28;;;;;;;325.17;311.20;;;11.90;99.90;;;;;;4360406;33;20152;-66
2022/02/24 11:20:56;;;;;;;315.70;302.37;;;11.80;99.90;;;;;;4356890;33;20227;-64
2022/02/24 11:23:23;;;;;;;318.80;304.90;;;11.60;99.90;;;;;;4345210;33;20297;-62
2022/02/24 11:26:03;;;;;;;333.43;319.23;;;11.70;99.90;;;;;;4345654;33;20146;-63
2022/02/24 11:28:39;;;;;;;309.50;296.37;;;11.80;99.90;;;;;;4345428;33;20164;-65
2022/02/24 11:31:15;;;;;;;313.77;300.53;;;12.10;99.90;;;;;;4348103;33;20203;-64
2022/02/24 11:33:44;;;;;;;300.03;287.37;;;12.30;99.90;;;;;;4360324;33;20149;-66
2022/02/24 11:36:14;;;;;;;298.67;286.03;;;12.40;99.90;;;;;;4360208;33;20167;-64
2022/02/24 11:38:41;;;;;;;303.03;290.27;;;12.20;99.90;;;;;;4360234;33;20169;-64
2022/02/24 11:41:10;;;;;;;295.20;282.80;;;12.10;99.90;;;;;;4356305;33;20208;-63
2022/02/24 11:43:43;;;;;;;324.03;310.17;;;12.10;99.90;;;;;;4346364;33;20145;-63
2022/02/24 11:46:11;;;;;;;296.90;284.50;;;12.00;99.90;;;;;;4346199;33;20145;-65
2022/02/24 11:48:43;;;;;;;273.77;261.77;;;11.90;99.90;;;;;;4345537;33;20557;-64
2022/02/24 11:51:21;;;;;;;285.53;273.33;;;11.90;99.90;;;;;;4347370;33;20240;-65
2022/02/24 11:53:50;;;;;;;269.83;258.27;;;11.90;99.90;;;;;;4360415;33;20137;-66
2022/02/24 11:56:18;;;;;;;284.10;272.00;;;11.90;99.90;;;;;;4360287;33;20155;-66
2022/02/24 11:58:53;;;;;;;292.77;280.70;;;11.80;99.90;;;;;;4361567;33;20172;-65
2022/02/24 12:01:34;;;;;;;295.97;283.47;;;11.50;99.90;;;;;;4358736;32;20174;-66
2022/02/24 12:04:21;;;;;;;317.37;303.93;;;11.60;99.90;;;;;;4363695;32;20176;-67
2022/02/24 12:06:51;;;;;;;335.63;321.13;;;11.70;99.90;;;;;;4363086;32;20503;-66
2022/02/24 12:09:23;;;;;;;347.77;332.43;;;11.80;99.90;;;;;;4363590;32;20142;-65
2022/02/24 12:11:52;;;;;;;360.30;344.83;;;11.90;99.90;;;;;;4359247;33;20185;-65
2022/02/24 12:14:43;;;;;;;400.73;382.47;;;11.70;99.90;;;;;;4347943;33;20157;-63
2022/02/24 12:17:13;;;;;;;389.63;372.50;;;11.10;99.90;;;;;;4355240;33;20159;-66
2022/02/24 12:19:43;;;;;;;431.13;411.33;;;10.50;99.90;;;;;;4362249;33;20501;-65
2022/02/24 12:22:15;;;;;;;434.43;414.17;;;10.30;99.90;;;;;;4360251;33;20228;-67
2022/02/24 12:24:44;;;;;;;450.23;429.63;;;10.10;99.90;;;;;;4363998;32;20439;-64